createdAt,value
2018-04-10T00:02:16.949Z,15.68
2018-04-10T00:04:44.682Z,12.48
2018-04-10T00:07:19.884Z,13.98
2018-04-10T00:09:56.656Z,15.27
2018-04-10T00:12:31.021Z,12.82
2018-04-10T00:14:58.775Z,10.30
2018-04-10T00:17:30.589Z,15.63
2018-04-10T00:19:58.344Z,16.17
2018-04-10T00:22:26.055Z,16.60
2018-04-10T00:24:53.741Z,15.00
2018-04-10T00:27:21.396Z,15.63
2018-04-10T00:29:49.868Z,9.75
2018-04-10T00:32:21.549Z,16.97
2018-04-10T00:34:49.244Z,9.93
2018-04-10T00:37:33.547Z,12.07
2018-04-10T00:40:08.028Z,10.73
2018-04-10T00:42:35.957Z,17.00
2018-04-10T00:45:03.715Z,12.20
2018-04-10T00:47:31.524Z,13.27
2018-04-10T00:49:59.292Z,10.27
2018-04-10T00:52:28.185Z,10.82
2018-04-10T00:54:55.965Z,10.18
2018-04-10T00:57:23.756Z,14.25
2018-04-10T00:59:55.432Z,13.50
2018-04-10T01:02:24.147Z,9.57
2018-04-10T01:04:51.925Z,12.02
2018-04-10T01:07:20.548Z,10.93
2018-04-10T01:09:48.254Z,14.50
2018-04-10T01:12:15.992Z,17.45
2018-04-10T01:14:45.176Z,11.93
2018-04-10T01:17:12.887Z,13.18
2018-04-10T01:19:40.659Z,17.10
2018-04-10T01:22:08.535Z,16.12
2018-04-10T01:24:36.330Z,16.25
2018-04-10T01:27:04.144Z,11.85
2018-04-10T01:29:31.932Z,13.62
2018-04-10T01:31:59.645Z,10.48
2018-04-10T01:34:27.467Z,14.05
2018-04-10T01:36:55.308Z,11.38
2018-04-10T01:39:23.059Z,12.37
2018-04-10T01:41:50.797Z,14.93
2018-04-10T01:44:18.528Z,13.07
2018-04-10T01:46:46.278Z,12.50
2018-04-10T01:49:14.082Z,11.55
2018-04-10T01:51:41.835Z,10.52
2018-04-10T01:54:09.539Z,13.00
2018-04-10T01:56:37.863Z,10.40
2018-04-10T01:59:05.561Z,12.32
2018-04-10T02:01:34.155Z,13.15
2018-04-10T02:04:02.679Z,15.50
2018-04-10T02:06:31.323Z,12.00
2018-04-10T02:08:59.051Z,12.40
2018-04-10T02:11:26.695Z,10.48
2018-04-10T02:13:54.393Z,12.32
2018-04-10T02:16:22.804Z,11.15
2018-04-10T02:18:50.477Z,12.00
2018-04-10T02:21:18.143Z,14.02
2018-04-10T02:23:46.630Z,13.23
2018-04-10T02:26:15.150Z,14.80
2018-04-10T02:28:42.807Z,14.60
2018-04-10T02:31:11.215Z,16.10
2018-04-10T02:33:38.938Z,14.70
2018-04-10T02:36:06.611Z,16.60
2018-04-10T02:38:34.336Z,14.38
2018-04-10T02:41:02.191Z,14.40
2018-04-10T02:43:29.912Z,14.43
2018-04-10T02:45:57.641Z,13.90
2018-04-10T02:48:25.311Z,15.63
2018-04-10T02:50:53.788Z,14.32
2018-04-10T02:53:21.445Z,15.20
2018-04-10T02:55:49.183Z,11.83
2018-04-10T02:58:16.808Z,15.43
2018-04-10T03:00:46.392Z,15.20
2018-04-10T03:03:14.070Z,14.45
2018-04-10T03:05:42.540Z,14.48
2018-04-10T03:08:10.994Z,14.90
2018-04-10T03:10:38.834Z,14.05
2018-04-10T03:13:06.652Z,13.82
2018-04-10T03:15:34.365Z,14.98
2018-04-10T03:18:02.035Z,14.07
2018-04-10T03:20:29.901Z,14.48
2018-04-10T03:22:58.457Z,17.58
2018-04-10T03:25:26.935Z,15.27
2018-04-10T03:27:54.877Z,16.10
2018-04-10T03:30:22.665Z,15.35
2018-04-10T03:32:50.471Z,15.23
2018-04-10T03:35:18.394Z,15.30
2018-04-10T03:37:46.087Z,12.68
2018-04-10T03:40:13.857Z,14.10
2018-04-10T03:42:41.673Z,14.30
2018-04-10T03:45:09.345Z,14.95
2018-04-10T03:47:37.119Z,14.38
2018-04-10T03:50:04.903Z,16.62
2018-04-10T03:52:32.642Z,14.68
2018-04-10T03:55:00.495Z,15.13
2018-04-10T03:57:28.269Z,15.52
2018-04-10T03:59:56.199Z,15.60
2018-04-10T04:02:24.014Z,17.07
2018-04-10T04:04:51.792Z,15.83
2018-04-10T04:07:19.640Z,16.52
2018-04-10T04:09:47.824Z,13.38
2018-04-10T04:12:15.471Z,15.15
2018-04-10T04:14:43.351Z,13.57
2018-04-10T04:17:23.673Z,14.13
2018-04-10T04:23:08.077Z,14.00
2018-04-10T04:25:35.830Z,15.43
2018-04-10T04:28:04.404Z,14.35
2018-04-10T04:30:32.083Z,14.83
2018-04-10T04:33:00.504Z,13.80
2018-04-10T04:35:28.209Z,14.30
2018-04-10T04:37:58.309Z,15.85
2018-04-10T04:40:26.040Z,14.83
2018-04-10T04:42:53.744Z,16.37
2018-04-10T04:45:25.504Z,14.77
2018-04-10T04:47:54.015Z,14.97
2018-04-10T04:50:21.729Z,13.40
2018-04-10T04:52:49.599Z,15.57
2018-04-10T04:55:17.307Z,13.33
2018-04-10T04:57:52.316Z,13.57
2018-04-10T05:00:20.857Z,17.17
2018-04-10T05:02:48.593Z,14.02
2018-04-10T05:05:16.250Z,13.38
2018-04-10T05:07:43.955Z,15.25
2018-04-10T05:10:11.702Z,14.35
2018-04-10T05:12:39.399Z,15.80
2018-04-10T05:15:07.266Z,14.00
2018-04-10T05:17:36.187Z,13.48
2018-04-10T05:20:03.904Z,17.08
2018-04-10T05:22:34.646Z,13.52
2018-04-10T05:25:02.580Z,15.48
2018-04-10T05:27:30.268Z,14.38
2018-04-10T05:29:58.156Z,12.40
2018-04-10T05:32:25.892Z,13.52
2018-04-10T05:34:58.281Z,14.63
2018-04-10T05:37:27.189Z,14.02
2018-04-10T05:39:59.187Z,14.18
2018-04-10T05:42:35.834Z,14.47
2018-04-10T05:45:03.522Z,12.93
2018-04-10T05:47:31.267Z,16.17
2018-04-10T05:49:58.933Z,12.37
2018-04-10T05:52:26.588Z,11.17
2018-04-10T05:54:54.270Z,13.20
2018-04-10T05:57:21.914Z,13.27
2018-04-10T05:59:49.574Z,10.90
2018-04-10T06:02:17.212Z,12.27
2018-04-10T06:04:44.907Z,11.35
2018-04-10T06:07:13.319Z,12.52
2018-04-10T06:09:40.980Z,10.30
2018-04-10T06:12:08.607Z,12.45
2018-04-10T06:14:36.291Z,11.05
2018-04-10T06:17:03.970Z,11.88
2018-04-10T06:19:31.720Z,10.60
2018-04-10T06:21:59.415Z,11.52
2018-04-10T06:24:27.092Z,9.93
2018-04-10T06:26:54.801Z,12.68
2018-04-10T06:29:23.264Z,11.82
2018-04-10T06:31:51.094Z,10.18
2018-04-10T06:34:18.764Z,11.18
2018-04-10T06:36:46.417Z,10.15
2018-04-10T06:39:14.817Z,11.02
2018-04-10T06:41:43.236Z,11.48
2018-04-10T06:44:10.918Z,12.02
2018-04-10T06:46:38.559Z,9.70
2018-04-10T06:49:06.222Z,10.45
2018-04-10T06:51:34.666Z,11.25
2018-04-10T06:54:02.324Z,13.38
2018-04-10T06:56:30.002Z,12.80
2018-04-10T06:58:57.688Z,10.38
2018-04-10T07:01:25.344Z,12.82
2018-04-10T07:03:53.024Z,9.07
2018-04-10T07:06:20.644Z,9.20
2018-04-10T07:08:48.324Z,12.93
2018-04-10T07:11:15.963Z,11.10
2018-04-10T07:13:43.629Z,11.32
2018-04-10T07:16:11.262Z,10.82
2018-04-10T07:18:38.924Z,10.65
2018-04-10T07:21:06.618Z,10.77
2018-04-10T07:23:34.376Z,9.30
2018-04-10T07:26:02.036Z,8.88
2018-04-10T07:28:30.579Z,10.32
2018-04-10T07:30:58.300Z,11.43
2018-04-10T07:33:26.083Z,8.55
2018-04-10T07:35:53.797Z,10.52
2018-04-10T07:38:22.366Z,10.38
2018-04-10T07:40:51.644Z,7.90
2018-04-10T07:43:19.668Z,10.17
2018-04-10T07:45:47.402Z,10.07
2018-04-10T07:48:15.141Z,8.27
2018-04-10T07:50:42.914Z,9.10
2018-04-10T07:53:10.642Z,8.25
2018-04-10T07:55:38.455Z,9.05
2018-04-10T07:58:06.927Z,7.53
2018-04-10T08:00:34.631Z,7.43
2018-04-10T08:03:02.494Z,8.17
2018-04-10T08:05:30.424Z,6.47
2018-04-10T08:07:58.148Z,7.95
2018-04-10T08:10:25.950Z,8.13
2018-04-10T08:12:53.619Z,7.07
2018-04-10T08:15:21.317Z,7.72
2018-04-10T08:17:48.988Z,7.53
2018-04-10T08:20:16.627Z,6.12
2018-04-10T08:22:44.338Z,7.68
2018-04-10T08:25:12.209Z,5.12
2018-04-10T08:27:40.916Z,6.35
2018-04-10T08:30:14.080Z,6.35
2018-04-10T08:32:42.318Z,7.15
2018-04-10T08:37:58.627Z,4.97
2018-04-10T08:40:27.872Z,6.55
2018-04-10T08:42:56.148Z,6.43
2018-04-10T08:45:24.097Z,6.43
2018-04-10T08:47:51.908Z,5.28
2018-04-10T08:50:19.585Z,6.75
2018-04-10T08:52:47.378Z,6.20
2018-04-10T08:55:15.431Z,7.53
2018-04-10T08:57:43.158Z,5.65
2018-04-10T09:00:12.076Z,6.25
2018-04-10T09:02:39.769Z,5.72
2018-04-10T09:05:09.815Z,5.40
2018-04-10T09:07:39.322Z,5.68
2018-04-10T09:10:08.106Z,5.53
2018-04-10T09:12:36.058Z,4.65
2018-04-10T09:15:04.199Z,5.65
2018-04-10T09:17:33.387Z,5.20
2018-04-10T09:20:01.835Z,4.28
2018-04-10T09:22:29.959Z,3.90
2018-04-10T09:24:57.779Z,5.35
2018-04-10T09:27:25.741Z,4.75
2018-04-10T09:29:54.512Z,5.53
2018-04-10T09:32:24.744Z,4.30
2018-04-10T09:34:52.679Z,5.00
2018-04-10T09:37:20.515Z,4.90
2018-04-10T09:39:48.434Z,5.40
2018-04-10T09:42:18.737Z,4.70
2018-04-10T09:44:46.843Z,5.23
2018-04-10T09:47:16.561Z,4.78
2018-04-10T09:49:44.386Z,4.20
2018-04-10T09:52:13.195Z,4.80
2018-04-10T09:54:41.990Z,4.20
2018-04-10T09:57:09.760Z,4.00
2018-04-10T09:59:38.483Z,3.78
2018-04-10T10:02:07.761Z,3.90
2018-04-10T10:04:36.873Z,3.83
2018-04-10T10:07:05.069Z,3.95
2018-04-10T10:09:33.041Z,3.40
2018-04-10T10:12:00.773Z,3.87
2018-04-10T10:14:28.528Z,3.97
2018-04-10T10:16:56.300Z,4.70
2018-04-10T10:19:24.011Z,2.83
2018-04-10T10:21:52.600Z,3.60
2018-04-10T10:24:20.404Z,4.50
2018-04-10T10:26:48.965Z,3.37
2018-04-10T10:29:16.610Z,3.05
2018-04-10T10:31:44.336Z,2.97
2018-04-10T10:34:12.948Z,2.70
2018-04-10T10:36:40.726Z,2.72
2018-04-10T10:39:08.549Z,3.00
2018-04-10T10:41:36.467Z,2.85
2018-04-10T10:44:04.302Z,3.00
2018-04-10T10:46:32.100Z,3.03
2018-04-10T10:49:00.023Z,2.65
2018-04-10T10:51:27.798Z,3.15
2018-04-10T10:53:55.478Z,2.37
2018-04-10T10:56:24.140Z,2.70
2018-04-10T10:58:52.592Z,2.80
2018-04-10T11:01:20.459Z,2.22
2018-04-10T11:03:48.259Z,2.47
2018-04-10T11:06:15.979Z,3.30
2018-04-10T11:08:44.005Z,2.40
2018-04-10T11:11:11.679Z,2.62
2018-04-10T11:13:39.342Z,2.60
2018-04-10T11:16:08.054Z,2.70
2018-04-10T11:18:35.724Z,2.12
2018-04-10T11:21:03.345Z,2.05
2018-04-10T11:23:31.038Z,2.22
2018-04-10T11:25:58.683Z,2.50
2018-04-10T11:28:27.478Z,2.12
2018-04-10T11:30:55.109Z,2.25
2018-04-10T11:33:24.254Z,2.25
2018-04-10T11:35:52.815Z,2.20
2018-04-10T11:38:21.402Z,2.60
2018-04-10T11:40:49.827Z,2.45
2018-04-10T11:43:17.520Z,1.60
2018-04-10T11:45:45.137Z,2.70
2018-04-10T11:48:13.560Z,2.30
2018-04-10T11:50:41.203Z,2.33
2018-04-10T11:53:08.925Z,2.80
2018-04-10T11:55:36.554Z,2.00
2018-04-10T11:58:04.985Z,2.08
2018-04-10T12:00:32.629Z,1.62
2018-04-10T12:03:01.059Z,1.90
2018-04-10T12:05:28.673Z,2.87
2018-04-10T12:07:57.140Z,2.33
2018-04-10T12:10:24.780Z,1.77
2018-04-10T12:12:52.475Z,1.90
2018-04-10T12:15:20.170Z,2.00
2018-04-10T12:17:47.867Z,1.83
2018-04-10T12:20:15.586Z,1.80
2018-04-10T12:22:43.217Z,2.17
2018-04-10T12:25:11.017Z,1.70
2018-04-10T12:27:39.727Z,1.80
2018-04-10T12:30:09.416Z,2.10
2018-04-10T12:32:37.269Z,2.63
2018-04-10T12:35:05.140Z,1.73
2018-04-10T12:37:32.990Z,1.95
2018-04-10T12:42:35.726Z,2.33
2018-04-10T12:45:09.936Z,1.73
2018-04-10T12:47:40.845Z,1.70
2018-04-10T12:50:08.865Z,1.70
2018-04-10T12:52:37.330Z,1.70
2018-04-10T12:55:09.111Z,3.75
2018-04-10T12:57:39.096Z,2.05
2018-04-10T13:00:14.558Z,1.90
2018-04-10T13:02:51.697Z,1.53
2018-04-10T13:05:26.224Z,1.50
2018-04-10T13:07:54.034Z,1.90
2018-04-10T13:10:21.891Z,1.90
2018-04-10T13:13:08.033Z,2.25
2018-04-10T13:15:40.532Z,2.60
2018-04-10T13:20:48.068Z,2.62
2018-04-10T13:23:15.739Z,1.65
2018-04-10T13:28:41.198Z,1.80
2018-04-10T13:31:09.024Z,1.58
2018-04-10T13:33:38.926Z,1.73
2018-04-10T13:36:08.721Z,1.70
2018-04-10T13:41:28.869Z,1.75
2018-04-10T13:43:57.493Z,1.70
2018-04-10T13:46:26.197Z,1.85
2018-04-10T13:48:54.187Z,1.70
2018-04-10T13:51:21.892Z,1.55
2018-04-10T13:53:49.521Z,1.63
2018-04-10T13:56:17.214Z,1.73
2018-04-10T13:58:44.895Z,4.50
2018-04-10T14:01:12.590Z,2.20
2018-04-10T14:03:41.398Z,1.15
2018-04-10T14:06:09.083Z,1.80
2018-04-10T14:08:37.000Z,3.80
2018-04-10T14:11:04.724Z,1.60
2018-04-10T14:13:32.386Z,2.35
2018-04-10T14:16:00.822Z,1.50
2018-04-10T14:18:28.486Z,3.00
2018-04-10T14:20:56.179Z,3.80
2018-04-10T14:23:23.867Z,1.95
2018-04-10T14:25:51.525Z,1.60
2018-04-10T14:28:19.182Z,3.05
2018-04-10T14:30:46.884Z,1.93
2018-04-10T14:33:14.584Z,1.50
2018-04-10T14:35:42.358Z,1.62
2018-04-10T14:38:10.030Z,1.98
2018-04-10T14:40:37.699Z,1.90
2018-04-10T14:43:06.753Z,5.62
2018-04-10T14:45:34.445Z,2.53
2018-04-10T14:48:02.147Z,4.37
2018-04-10T14:50:29.795Z,1.35
2018-04-10T14:52:58.605Z,1.50
2018-04-10T14:55:30.056Z,6.35
2018-04-10T14:57:58.413Z,3.47
2018-04-10T15:00:26.895Z,4.03
2018-04-10T15:02:55.376Z,1.90
2018-04-10T15:05:23.057Z,4.85
2018-04-10T15:07:50.701Z,7.22
2018-04-10T15:10:18.354Z,2.95
2018-04-10T15:12:48.585Z,2.28
2018-04-10T15:15:17.606Z,3.03
2018-04-10T15:17:45.264Z,1.83
2018-04-10T15:20:17.391Z,2.12
2018-04-10T15:22:45.793Z,4.25
2018-04-10T15:25:13.449Z,4.33
2018-04-10T15:27:41.177Z,3.47
2018-04-10T15:30:08.833Z,3.58
2018-04-10T15:32:36.617Z,3.40
2018-04-10T15:35:04.410Z,2.67
2018-04-10T15:37:32.055Z,4.03
2018-04-10T15:40:00.512Z,4.25
2018-04-10T15:42:28.278Z,2.00
2018-04-10T15:44:55.993Z,2.50
2018-04-10T15:47:23.701Z,1.92
2018-04-10T15:49:51.393Z,2.83
2018-04-10T15:52:19.011Z,3.28
2018-04-10T15:54:47.524Z,2.40
2018-04-10T15:57:15.304Z,2.92
2018-04-10T15:59:43.693Z,1.90
2018-04-10T16:02:12.159Z,2.00
2018-04-10T16:04:39.840Z,3.00
2018-04-10T16:07:07.589Z,2.25
2018-04-10T16:09:35.323Z,2.27
2018-04-10T16:12:03.195Z,3.80
2018-04-10T16:14:31.017Z,2.67
2018-04-10T16:16:59.021Z,2.00
2018-04-10T16:19:26.734Z,3.37
2018-04-10T16:21:54.556Z,3.80
2018-04-10T16:24:22.324Z,8.10
2018-04-10T16:26:50.095Z,6.57
2018-04-10T16:29:18.528Z,5.62
2018-04-10T16:31:48.478Z,6.00
2018-04-10T16:34:17.000Z,4.43
2018-04-10T16:36:44.848Z,4.03
2018-04-10T16:39:12.841Z,2.90
2018-04-10T16:41:41.340Z,3.25
2018-04-10T16:44:08.959Z,3.22
2018-04-10T16:46:36.611Z,3.08
2018-04-10T16:49:05.073Z,2.70
2018-04-10T16:51:33.623Z,5.03
2018-04-10T16:54:01.319Z,3.28
2018-04-10T16:56:29.079Z,4.60
2018-04-10T16:58:57.000Z,2.90
2018-04-10T17:01:26.707Z,3.03
2018-04-10T17:03:54.536Z,2.95
2018-04-10T17:06:22.283Z,2.87
2018-04-10T17:08:50.153Z,4.78
2018-04-10T17:11:17.805Z,3.70
2018-04-10T17:13:45.527Z,3.80
2018-04-10T17:16:13.435Z,2.72
2018-04-10T17:18:41.097Z,4.25
2018-04-10T17:21:09.127Z,3.47
2018-04-10T17:23:37.100Z,3.55
2018-04-10T17:26:04.933Z,5.78
2018-04-10T17:28:33.138Z,3.58
2018-04-10T17:31:00.944Z,4.47
2018-04-10T17:33:28.673Z,4.00
2018-04-10T17:35:56.441Z,4.32
2018-04-10T17:38:24.931Z,5.40
2018-04-10T17:40:52.744Z,3.70
2018-04-10T17:43:20.416Z,4.10
2018-04-10T17:46:00.741Z,3.53
2018-04-10T18:12:34.287Z,6.97
2018-04-10T18:15:03.048Z,3.17
2018-04-10T18:17:31.025Z,6.10
2018-04-10T18:19:58.795Z,4.72
2018-04-10T18:22:26.463Z,6.55
2018-04-10T18:24:54.236Z,4.73
2018-04-10T18:27:22.126Z,5.90
2018-04-10T18:29:50.591Z,4.87
2018-04-10T18:32:18.301Z,6.70
2018-04-10T18:34:46.307Z,6.72
2018-04-10T18:37:14.927Z,5.97
2018-04-10T18:39:42.996Z,6.07
2018-04-10T18:42:11.572Z,6.33
2018-04-10T18:44:39.347Z,3.15
2018-04-10T18:47:08.953Z,4.87
2018-04-10T18:49:38.756Z,4.12
2018-04-10T18:52:06.704Z,5.22
2018-04-10T18:54:34.650Z,3.65
2018-04-10T18:57:06.343Z,4.62
2018-04-10T19:02:31.966Z,5.53
2018-04-10T19:04:59.980Z,4.72
2018-04-10T19:07:27.996Z,2.97
2018-04-10T19:09:55.680Z,4.00
2018-04-10T19:12:23.444Z,4.22
2018-04-10T19:14:51.067Z,4.25
2018-04-10T19:17:19.725Z,5.03
2018-04-10T19:19:47.696Z,4.17
2018-04-10T19:22:16.503Z,7.60
2018-04-10T19:24:44.552Z,4.10
2018-04-10T19:27:12.674Z,5.17
2018-04-10T19:29:40.797Z,7.43
2018-04-10T19:32:11.856Z,6.80
2018-04-10T19:34:39.688Z,14.57
2018-04-10T19:37:07.524Z,14.18
2018-04-10T19:39:35.304Z,6.45
2018-04-10T19:42:03.070Z,10.95
2018-04-10T19:44:30.761Z,9.45
2018-04-10T19:46:59.483Z,14.48
2018-04-10T19:49:27.150Z,8.82
2018-04-10T19:51:55.621Z,5.17
2018-04-10T19:54:29.210Z,13.70
2018-04-10T19:59:30.881Z,14.80
2018-04-10T20:01:58.684Z,11.02
2018-04-10T20:04:43.986Z,12.00
2018-04-10T20:07:11.895Z,13.05
2018-04-10T20:09:45.161Z,6.78
2018-04-10T20:12:12.869Z,11.25
2018-04-10T20:14:40.664Z,8.75
2018-04-10T20:17:08.398Z,9.65
2018-04-10T20:19:36.993Z,9.10
2018-04-10T20:22:05.623Z,8.30
2018-04-10T20:24:33.881Z,6.43
2018-04-10T20:29:50.354Z,7.40
2018-04-10T20:32:18.016Z,5.47
2018-04-10T20:34:45.790Z,7.07
2018-04-10T20:37:13.493Z,7.82
2018-04-10T20:39:42.208Z,8.93
2018-04-10T20:42:09.872Z,6.47
2018-04-10T20:44:37.665Z,8.52
2018-04-10T20:47:05.717Z,6.87
2018-04-10T20:49:35.362Z,8.43
2018-04-10T20:52:03.161Z,7.07
2018-04-10T20:54:39.245Z,7.28
2018-04-10T20:57:06.981Z,7.68
2018-04-10T20:59:34.679Z,7.45
2018-04-10T21:02:02.339Z,8.57
2018-04-10T21:04:32.279Z,6.70
2018-04-10T21:07:00.044Z,6.87
2018-04-10T21:09:27.783Z,8.95
2018-04-10T21:11:55.520Z,6.95
2018-04-10T21:14:23.248Z,6.15
2018-04-10T21:16:51.697Z,7.45
2018-04-10T21:19:19.496Z,7.15
2018-04-10T21:21:48.722Z,8.07
2018-04-10T21:24:44.425Z,9.63
2018-04-10T21:27:12.253Z,9.40
2018-04-10T21:29:45.646Z,7.63
2018-04-10T21:32:13.320Z,8.18
2018-04-10T21:34:45.527Z,8.57
2018-04-10T21:37:13.216Z,7.97
2018-04-10T21:39:42.856Z,7.60
2018-04-10T21:42:15.303Z,9.57
2018-04-10T21:44:43.101Z,8.38
2018-04-10T21:47:11.654Z,7.60
2018-04-10T21:49:43.103Z,7.70
2018-04-10T21:52:10.794Z,8.82
2018-04-10T21:54:38.598Z,7.20
2018-04-10T21:57:06.328Z,7.93
2018-04-10T21:59:34.007Z,7.85
2018-04-10T22:02:01.730Z,7.95
2018-04-10T22:04:29.489Z,7.65
2018-04-10T22:06:57.931Z,8.00
2018-04-10T22:09:45.761Z,6.73
2018-04-10T22:12:13.439Z,7.43
2018-04-10T22:14:41.981Z,9.27
2018-04-10T22:17:10.463Z,8.95
2018-04-10T22:19:38.137Z,7.75
2018-04-10T22:22:06.024Z,8.38
2018-04-10T22:24:33.898Z,9.40
2018-04-10T22:27:01.610Z,8.93
2018-04-10T22:29:30.247Z,6.82
2018-04-10T22:31:58.006Z,9.05
2018-04-10T22:34:25.637Z,7.55
2018-04-10T22:36:53.419Z,9.00
2018-04-10T22:39:21.232Z,7.87
2018-04-10T22:41:49.033Z,6.87
2018-04-10T22:44:16.711Z,7.47
2018-04-10T22:46:44.497Z,8.18
2018-04-10T22:49:12.829Z,8.93
2018-04-10T22:51:40.707Z,6.07
2018-04-10T22:54:09.100Z,7.37
2018-04-10T22:56:40.666Z,6.95
2018-04-10T22:59:08.947Z,7.20
2018-04-10T23:01:36.935Z,6.87
2018-04-10T23:04:06.109Z,7.05
2018-04-10T23:06:34.841Z,6.10
2018-04-10T23:09:03.218Z,5.05
2018-04-10T23:11:31.438Z,6.80
2018-04-10T23:13:59.338Z,6.05
2018-04-10T23:16:27.205Z,6.65
2018-04-10T23:18:54.947Z,5.97
2018-04-10T23:21:23.582Z,6.15
2018-04-10T23:23:51.357Z,5.80
2018-04-10T23:26:19.069Z,6.12
2018-04-10T23:28:46.909Z,6.60
2018-04-10T23:31:15.533Z,5.90
2018-04-10T23:33:43.921Z,5.82
2018-04-10T23:36:12.036Z,6.87
2018-04-10T23:38:39.916Z,6.82
2018-04-10T23:41:08.046Z,5.97
2018-04-10T23:43:42.121Z,5.37
2018-04-10T23:46:10.207Z,5.57
2018-04-10T23:48:38.161Z,6.15
2018-04-10T23:51:05.983Z,6.68
2018-04-10T23:53:33.801Z,6.00
2018-04-10T23:56:01.810Z,6.47
2018-04-10T23:58:29.542Z,7.03
